sensor_id;sensor_type;location;lat;lon;timestamp;temperature;humidity
1778;DHT22;886;50.082;8.222;2023-06-04T00:00:53;17.90;63.10
1778;DHT22;886;50.082;8.222;2023-06-04T00:03:20;17.90;63.80
1778;DHT22;886;50.082;8.222;2023-06-04T00:05:50;17.90;63.90
1778;DHT22;886;50.082;8.222;2023-06-04T00:08:23;18.00;63.30
1778;DHT22;886;50.082;8.222;2023-06-04T00:10:51;17.90;64.80
1778;DHT22;886;50.082;8.222;2023-06-04T00:13:18;17.80;65.50
1778;DHT22;886;50.082;8.222;2023-06-04T00:15:46;17.80;63.60
1778;DHT22;886;50.082;8.222;2023-06-04T00:18:13;17.70;63.70
1778;DHT22;886;50.082;8.222;2023-06-04T00:20:41;17.80;63.60
1778;DHT22;886;50.082;8.222;2023-06-04T00:23:08;17.70;63.60
1778;DHT22;886;50.082;8.222;2023-06-04T00:25:37;17.70;63.80
1778;DHT22;886;50.082;8.222;2023-06-04T00:28:06;17.70;63.80
1778;DHT22;886;50.082;8.222;2023-06-04T00:30:37;17.70;64.10
1778;DHT22;886;50.082;8.222;2023-06-04T00:33:04;17.70;64.00
1778;DHT22;886;50.082;8.222;2023-06-04T00:35:32;17.70;64.60
1778;DHT22;886;50.082;8.222;2023-06-04T00:37:59;17.70;64.60
1778;DHT22;886;50.082;8.222;2023-06-04T00:40:27;17.70;64.40
1778;DHT22;886;50.082;8.222;2023-06-04T00:42:58;17.70;65.60
1778;DHT22;886;50.082;8.222;2023-06-04T00:45:26;17.60;66.10
1778;DHT22;886;50.082;8.222;2023-06-04T00:47:53;17.60;66.70
1778;DHT22;886;50.082;8.222;2023-06-04T00:50:21;17.60;66.20
1778;DHT22;886;50.082;8.222;2023-06-04T00:52:49;17.50;65.90
1778;DHT22;886;50.082;8.222;2023-06-04T00:55:20;17.50;65.40
1778;DHT22;886;50.082;8.222;2023-06-04T00:57:49;17.40;66.80
1778;DHT22;886;50.082;8.222;2023-06-04T01:00:18;17.40;66.60
1778;DHT22;886;50.082;8.222;2023-06-04T01:02:49;17.30;67.10
1778;DHT22;886;50.082;8.222;2023-06-04T01:05:24;17.20;67.40
1778;DHT22;886;50.082;8.222;2023-06-04T01:07:59;17.30;67.40
1778;DHT22;886;50.082;8.222;2023-06-04T01:10:26;17.30;66.30
1778;DHT22;886;50.082;8.222;2023-06-04T01:12:54;17.20;66.00
1778;DHT22;886;50.082;8.222;2023-06-04T01:15:23;17.20;66.40
1778;DHT22;886;50.082;8.222;2023-06-04T01:17:54;17.20;66.60
1778;DHT22;886;50.082;8.222;2023-06-04T01:20:34;17.20;66.70
1778;DHT22;886;50.082;8.222;2023-06-04T01:23:26;17.10;67.00
1778;DHT22;886;50.082;8.222;2023-06-04T01:26:02;17.00;67.40
1778;DHT22;886;50.082;8.222;2023-06-04T01:28:32;17.00;67.10
1778;DHT22;886;50.082;8.222;2023-06-04T01:31:03;17.00;67.10
1778;DHT22;886;50.082;8.222;2023-06-04T01:33:32;16.80;67.40
1778;DHT22;886;50.082;8.222;2023-06-04T01:35:59;16.70;67.40
1778;DHT22;886;50.082;8.222;2023-06-04T01:38:27;16.60;67.50
1778;DHT22;886;50.082;8.222;2023-06-04T01:40:54;16.50;67.90
1778;DHT22;886;50.082;8.222;2023-06-04T01:43:23;16.50;68.40
1778;DHT22;886;50.082;8.222;2023-06-04T01:45:50;16.40;68.30
1778;DHT22;886;50.082;8.222;2023-06-04T01:48:19;16.40;68.30
1778;DHT22;886;50.082;8.222;2023-06-04T01:50:46;16.40;68.40
1778;DHT22;886;50.082;8.222;2023-06-04T01:53:19;16.30;68.70
1778;DHT22;886;50.082;8.222;2023-06-04T01:55:46;16.20;68.80
1778;DHT22;886;50.082;8.222;2023-06-04T01:58:19;16.20;69.70
1778;DHT22;886;50.082;8.222;2023-06-04T02:00:56;16.10;69.20
1778;DHT22;886;50.082;8.222;2023-06-04T02:03:28;16.00;70.10
1778;DHT22;886;50.082;8.222;2023-06-04T02:06:03;16.00;70.00
1778;DHT22;886;50.082;8.222;2023-06-04T02:08:31;15.90;70.10
1778;DHT22;886;50.082;8.222;2023-06-04T02:11:03;15.80;70.30
1778;DHT22;886;50.082;8.222;2023-06-04T02:13:30;15.70;70.80
1778;DHT22;886;50.082;8.222;2023-06-04T02:16:01;15.60;71.10
1778;DHT22;886;50.082;8.222;2023-06-04T02:18:29;15.60;70.80
1778;DHT22;886;50.082;8.222;2023-06-04T02:20:57;15.50;71.00
1778;DHT22;886;50.082;8.222;2023-06-04T02:23:25;15.50;70.60
1778;DHT22;886;50.082;8.222;2023-06-04T02:25:52;15.60;70.60
1778;DHT22;886;50.082;8.222;2023-06-04T02:28:22;15.60;70.20
1778;DHT22;886;50.082;8.222;2023-06-04T02:30:50;15.50;70.20
1778;DHT22;886;50.082;8.222;2023-06-04T02:33:18;15.60;70.30
1778;DHT22;886;50.082;8.222;2023-06-04T02:35:46;15.70;70.30
1778;DHT22;886;50.082;8.222;2023-06-04T02:38:14;15.70;70.20
1778;DHT22;886;50.082;8.222;2023-06-04T02:40:42;15.70;70.20
1778;DHT22;886;50.082;8.222;2023-06-04T02:43:11;15.70;70.20
1778;DHT22;886;50.082;8.222;2023-06-04T02:45:38;15.60;69.60
1778;DHT22;886;50.082;8.222;2023-06-04T02:48:06;15.70;69.90
1778;DHT22;886;50.082;8.222;2023-06-04T02:50:33;15.60;69.70
1778;DHT22;886;50.082;8.222;2023-06-04T02:53:02;15.70;69.50
1778;DHT22;886;50.082;8.222;2023-06-04T02:55:29;15.70;70.00
1778;DHT22;886;50.082;8.222;2023-06-04T02:57:56;15.70;69.20
1778;DHT22;886;50.082;8.222;2023-06-04T03:00:24;15.70;69.40
1778;DHT22;886;50.082;8.222;2023-06-04T03:02:52;15.60;70.20
1778;DHT22;886;50.082;8.222;2023-06-04T03:05:23;15.40;70.30
1778;DHT22;886;50.082;8.222;2023-06-04T03:08:15;15.50;70.90
1778;DHT22;886;50.082;8.222;2023-06-04T03:10:42;15.50;69.70
1778;DHT22;886;50.082;8.222;2023-06-04T03:13:09;15.40;69.80
1778;DHT22;886;50.082;8.222;2023-06-04T03:15:39;15.30;70.50
1778;DHT22;886;50.082;8.222;2023-06-04T03:18:06;15.20;70.30
1778;DHT22;886;50.082;8.222;2023-06-04T03:20:34;15.20;70.20
1778;DHT22;886;50.082;8.222;2023-06-04T03:23:08;15.20;70.20
1778;DHT22;886;50.082;8.222;2023-06-04T03:25:37;15.30;70.70
1778;DHT22;886;50.082;8.222;2023-06-04T03:28:04;15.40;70.10
1778;DHT22;886;50.082;8.222;2023-06-04T03:30:31;15.40;70.10
1778;DHT22;886;50.082;8.222;2023-06-04T03:32:59;15.40;70.00
1778;DHT22;886;50.082;8.222;2023-06-04T03:35:27;15.40;69.90
1778;DHT22;886;50.082;8.222;2023-06-04T03:37:54;15.50;69.80
1778;DHT22;886;50.082;8.222;2023-06-04T03:40:22;15.50;69.70
1778;DHT22;886;50.082;8.222;2023-06-04T03:42:51;15.40;69.80
1778;DHT22;886;50.082;8.222;2023-06-04T03:45:18;15.40;70.00
1778;DHT22;886;50.082;8.222;2023-06-04T03:47:45;15.40;69.90
1778;DHT22;886;50.082;8.222;2023-06-04T03:50:12;15.40;69.90
1778;DHT22;886;50.082;8.222;2023-06-04T03:52:40;15.40;70.10
1778;DHT22;886;50.082;8.222;2023-06-04T03:55:07;15.40;69.80
1778;DHT22;886;50.082;8.222;2023-06-04T03:57:35;15.30;69.90
1778;DHT22;886;50.082;8.222;2023-06-04T04:00:07;15.40;70.00
1778;DHT22;886;50.082;8.222;2023-06-04T04:02:38;15.30;70.00
1778;DHT22;886;50.082;8.222;2023-06-04T04:05:07;15.30;70.10
1778;DHT22;886;50.082;8.222;2023-06-04T04:07:35;15.20;70.30
1778;DHT22;886;50.082;8.222;2023-06-04T04:10:03;15.20;70.40
1778;DHT22;886;50.082;8.222;2023-06-04T04:12:32;15.20;70.50
1778;DHT22;886;50.082;8.222;2023-06-04T04:14:59;15.30;70.60
1778;DHT22;886;50.082;8.222;2023-06-04T04:17:28;15.30;71.00
1778;DHT22;886;50.082;8.222;2023-06-04T04:19:55;15.30;70.80
1778;DHT22;886;50.082;8.222;2023-06-04T04:22:25;15.20;71.00
1778;DHT22;886;50.082;8.222;2023-06-04T04:24:55;15.20;71.50
1778;DHT22;886;50.082;8.222;2023-06-04T04:27:26;15.20;71.40
1778;DHT22;886;50.082;8.222;2023-06-04T04:29:53;15.20;71.40
1778;DHT22;886;50.082;8.222;2023-06-04T04:32:30;15.20;71.40
1778;DHT22;886;50.082;8.222;2023-06-04T04:34:57;15.30;71.60
1778;DHT22;886;50.082;8.222;2023-06-04T04:37:26;15.30;71.60
1778;DHT22;886;50.082;8.222;2023-06-04T04:39:53;15.40;71.60
1778;DHT22;886;50.082;8.222;2023-06-04T04:42:20;15.40;71.70
1778;DHT22;886;50.082;8.222;2023-06-04T04:44:48;15.40;71.60
1778;DHT22;886;50.082;8.222;2023-06-04T04:47:17;15.40;71.80
1778;DHT22;886;50.082;8.222;2023-06-04T04:49:46;15.40;71.90
1778;DHT22;886;50.082;8.222;2023-06-04T04:52:16;15.30;72.00
1778;DHT22;886;50.082;8.222;2023-06-04T04:54:43;15.40;72.30
1778;DHT22;886;50.082;8.222;2023-06-04T04:57:10;15.40;72.20
1778;DHT22;886;50.082;8.222;2023-06-04T04:59:40;15.50;72.20
1778;DHT22;886;50.082;8.222;2023-06-04T05:02:07;15.50;72.20
1778;DHT22;886;50.082;8.222;2023-06-04T05:04:34;15.50;72.40
1778;DHT22;886;50.082;8.222;2023-06-04T05:07:06;15.60;72.30
1778;DHT22;886;50.082;8.222;2023-06-04T05:09:34;15.60;72.30
1778;DHT22;886;50.082;8.222;2023-06-04T05:12:01;15.60;72.30
1778;DHT22;886;50.082;8.222;2023-06-04T05:14:45;15.70;72.40
1778;DHT22;886;50.082;8.222;2023-06-04T05:17:13;15.80;72.40
1778;DHT22;886;50.082;8.222;2023-06-04T05:19:43;15.90;72.40
1778;DHT22;886;50.082;8.222;2023-06-04T05:22:15;15.90;72.10
1778;DHT22;886;50.082;8.222;2023-06-04T05:24:47;15.80;72.70
1778;DHT22;886;50.082;8.222;2023-06-04T05:27:14;15.90;72.50
1778;DHT22;886;50.082;8.222;2023-06-04T05:29:43;15.90;72.60
1778;DHT22;886;50.082;8.222;2023-06-04T05:32:10;16.00;72.50
1778;DHT22;886;50.082;8.222;2023-06-04T05:34:38;15.90;72.90
1778;DHT22;886;50.082;8.222;2023-06-04T05:37:06;15.80;73.00
1778;DHT22;886;50.082;8.222;2023-06-04T05:39:39;15.90;73.50
1778;DHT22;886;50.082;8.222;2023-06-04T05:42:06;15.90;73.50
1778;DHT22;886;50.082;8.222;2023-06-04T05:44:33;16.00;73.60
1778;DHT22;886;50.082;8.222;2023-06-04T05:47:00;16.10;73.60
1778;DHT22;886;50.082;8.222;2023-06-04T05:49:28;16.10;73.80
1778;DHT22;886;50.082;8.222;2023-06-04T05:52:12;16.10;74.20
1778;DHT22;886;50.082;8.222;2023-06-04T05:54:41;16.20;74.50
1778;DHT22;886;50.082;8.222;2023-06-04T05:57:08;16.30;74.70
1778;DHT22;886;50.082;8.222;2023-06-04T05:59:35;16.40;74.60
1778;DHT22;886;50.082;8.222;2023-06-04T06:02:02;16.50;76.00
1778;DHT22;886;50.082;8.222;2023-06-04T06:04:30;16.50;75.80
1778;DHT22;886;50.082;8.222;2023-06-04T06:06:58;16.70;75.00
1778;DHT22;886;50.082;8.222;2023-06-04T06:09:25;17.00;75.30
1778;DHT22;886;50.082;8.222;2023-06-04T06:11:54;17.30;74.80
1778;DHT22;886;50.082;8.222;2023-06-04T06:14:21;17.60;70.30
1778;DHT22;886;50.082;8.222;2023-06-04T06:16:50;18.10;67.60
1778;DHT22;886;50.082;8.222;2023-06-04T06:19:18;18.70;67.20
1778;DHT22;886;50.082;8.222;2023-06-04T06:21:45;19.20;68.30
1778;DHT22;886;50.082;8.222;2023-06-04T06:24:12;19.50;69.70
1778;DHT22;886;50.082;8.222;2023-06-04T06:26:40;19.80;63.20
1778;DHT22;886;50.082;8.222;2023-06-04T06:29:09;20.00;64.70
1778;DHT22;886;50.082;8.222;2023-06-04T06:31:37;20.10;63.80
1778;DHT22;886;50.082;8.222;2023-06-04T06:34:05;19.90;60.90
1778;DHT22;886;50.082;8.222;2023-06-04T06:36:50;19.90;61.10
1778;DHT22;886;50.082;8.222;2023-06-04T06:39:18;19.90;59.70
1778;DHT22;886;50.082;8.222;2023-06-04T06:41:46;19.90;60.50
1778;DHT22;886;50.082;8.222;2023-06-04T06:44:17;19.90;60.00
1778;DHT22;886;50.082;8.222;2023-06-04T06:46:44;19.90;59.60
1778;DHT22;886;50.082;8.222;2023-06-04T06:49:29;20.00;59.40
1778;DHT22;886;50.082;8.222;2023-06-04T06:51:56;20.10;59.60
1778;DHT22;886;50.082;8.222;2023-06-04T06:54:24;20.20;59.30
1778;DHT22;886;50.082;8.222;2023-06-04T06:56:54;20.40;59.20
1778;DHT22;886;50.082;8.222;2023-06-04T06:59:23;20.50;58.50
1778;DHT22;886;50.082;8.222;2023-06-04T07:01:50;20.80;58.30
1778;DHT22;886;50.082;8.222;2023-06-04T07:04:18;21.30;57.90
1778;DHT22;886;50.082;8.222;2023-06-04T07:06:45;21.80;57.20
1778;DHT22;886;50.082;8.222;2023-06-04T07:09:12;22.40;56.60
1778;DHT22;886;50.082;8.222;2023-06-04T07:11:40;23.10;55.30
1778;DHT22;886;50.082;8.222;2023-06-04T07:14:07;23.60;53.80
1778;DHT22;886;50.082;8.222;2023-06-04T07:16:36;24.10;53.10
1778;DHT22;886;50.082;8.222;2023-06-04T07:19:04;24.40;53.00
1778;DHT22;886;50.082;8.222;2023-06-04T07:21:31;24.70;52.90
1778;DHT22;886;50.082;8.222;2023-06-04T07:23:58;25.10;52.60
1778;DHT22;886;50.082;8.222;2023-06-04T07:26:26;25.40;51.70
1778;DHT22;886;50.082;8.222;2023-06-04T07:29:14;25.20;51.30
1778;DHT22;886;50.082;8.222;2023-06-04T07:31:46;25.10;51.20
1778;DHT22;886;50.082;8.222;2023-06-04T07:34:16;24.60;50.40
1778;DHT22;886;50.082;8.222;2023-06-04T07:36:44;24.00;51.30
1778;DHT22;886;50.082;8.222;2023-06-04T07:39:12;23.70;51.80
1778;DHT22;886;50.082;8.222;2023-06-04T07:41:40;23.30;52.20
1778;DHT22;886;50.082;8.222;2023-06-04T07:44:07;23.20;52.40
1778;DHT22;886;50.082;8.222;2023-06-04T07:46:37;23.00;52.50
1778;DHT22;886;50.082;8.222;2023-06-04T07:49:08;22.80;53.00
1778;DHT22;886;50.082;8.222;2023-06-04T07:51:35;22.60;52.80
1778;DHT22;886;50.082;8.222;2023-06-04T07:54:21;22.40;53.60
1778;DHT22;886;50.082;8.222;2023-06-04T07:56:49;22.30;53.60
1778;DHT22;886;50.082;8.222;2023-06-04T07:59:16;22.20;54.00
1778;DHT22;886;50.082;8.222;2023-06-04T08:01:43;22.20;53.80
1778;DHT22;886;50.082;8.222;2023-06-04T08:04:12;22.20;54.00
1778;DHT22;886;50.082;8.222;2023-06-04T08:06:40;22.20;54.00
1778;DHT22;886;50.082;8.222;2023-06-04T08:09:11;22.30;54.20
1778;DHT22;886;50.082;8.222;2023-06-04T08:11:41;22.40;54.20
1778;DHT22;886;50.082;8.222;2023-06-04T08:14:12;22.50;53.80
1778;DHT22;886;50.082;8.222;2023-06-04T08:16:57;22.70;54.10
1778;DHT22;886;50.082;8.222;2023-06-04T08:19:26;23.10;54.00
1778;DHT22;886;50.082;8.222;2023-06-04T08:21:54;23.50;53.00
1778;DHT22;886;50.082;8.222;2023-06-04T08:24:22;23.70;53.30
1778;DHT22;886;50.082;8.222;2023-06-04T08:26:49;23.90;53.30
1778;DHT22;886;50.082;8.222;2023-06-04T08:29:17;24.00;53.20
1778;DHT22;886;50.082;8.222;2023-06-04T08:31:44;23.90;52.40
1778;DHT22;886;50.082;8.222;2023-06-04T08:34:11;24.00;52.60
1778;DHT22;886;50.082;8.222;2023-06-04T08:36:39;24.00;52.80
1778;DHT22;886;50.082;8.222;2023-06-04T08:39:08;23.80;53.20
1778;DHT22;886;50.082;8.222;2023-06-04T08:41:42;23.70;53.60
1778;DHT22;886;50.082;8.222;2023-06-04T08:44:11;23.50;53.30
1778;DHT22;886;50.082;8.222;2023-06-04T08:46:40;23.40;53.20
1778;DHT22;886;50.082;8.222;2023-06-04T08:49:08;23.20;53.70
1778;DHT22;886;50.082;8.222;2023-06-04T08:51:36;23.10;53.10
1778;DHT22;886;50.082;8.222;2023-06-04T08:54:06;23.10;53.10
1778;DHT22;886;50.082;8.222;2023-06-04T08:56:35;22.90;53.40
1778;DHT22;886;50.082;8.222;2023-06-04T08:59:03;22.90;53.40
1778;DHT22;886;50.082;8.222;2023-06-04T09:01:34;22.90;53.70
1778;DHT22;886;50.082;8.222;2023-06-04T09:04:05;23.10;54.10
1778;DHT22;886;50.082;8.222;2023-06-04T09:06:36;23.20;53.70
1778;DHT22;886;50.082;8.222;2023-06-04T09:09:09;23.30;53.60
1778;DHT22;886;50.082;8.222;2023-06-04T09:11:41;23.40;52.80
1778;DHT22;886;50.082;8.222;2023-06-04T09:14:14;23.40;52.80
1778;DHT22;886;50.082;8.222;2023-06-04T09:16:46;23.40;52.40
1778;DHT22;886;50.082;8.222;2023-06-04T09:19:14;23.50;52.90
1778;DHT22;886;50.082;8.222;2023-06-04T09:21:48;23.70;52.70
1778;DHT22;886;50.082;8.222;2023-06-04T09:24:18;24.00;52.00
1778;DHT22;886;50.082;8.222;2023-06-04T09:26:46;24.30;51.60
1778;DHT22;886;50.082;8.222;2023-06-04T09:29:14;24.60;50.80
1778;DHT22;886;50.082;8.222;2023-06-04T09:31:44;24.70;50.70
1778;DHT22;886;50.082;8.222;2023-06-04T09:34:14;24.70;50.80
1778;DHT22;886;50.082;8.222;2023-06-04T09:36:44;24.70;51.80
1778;DHT22;886;50.082;8.222;2023-06-04T09:39:15;24.40;51.20
1778;DHT22;886;50.082;8.222;2023-06-04T09:41:44;24.30;51.50
1778;DHT22;886;50.082;8.222;2023-06-04T09:44:12;24.00;51.90
1778;DHT22;886;50.082;8.222;2023-06-04T09:46:39;24.00;50.80
1778;DHT22;886;50.082;8.222;2023-06-04T09:49:06;23.80;50.80
1778;DHT22;886;50.082;8.222;2023-06-04T09:51:34;23.80;51.50
1778;DHT22;886;50.082;8.222;2023-06-04T09:54:02;23.70;50.80
1778;DHT22;886;50.082;8.222;2023-06-04T09:56:39;23.80;50.50
1778;DHT22;886;50.082;8.222;2023-06-04T09:59:09;23.70;48.80
1778;DHT22;886;50.082;8.222;2023-06-04T10:01:40;23.70;49.40
1778;DHT22;886;50.082;8.222;2023-06-04T10:04:09;23.70;50.40
1778;DHT22;886;50.082;8.222;2023-06-04T10:06:39;23.70;51.10
1778;DHT22;886;50.082;8.222;2023-06-04T10:09:08;23.60;51.90
1778;DHT22;886;50.082;8.222;2023-06-04T10:11:40;23.60;52.00
1778;DHT22;886;50.082;8.222;2023-06-04T10:14:18;23.60;51.50
1778;DHT22;886;50.082;8.222;2023-06-04T10:16:47;23.60;51.00
1778;DHT22;886;50.082;8.222;2023-06-04T10:19:16;23.70;52.00
1778;DHT22;886;50.082;8.222;2023-06-04T10:21:45;23.80;52.40
1778;DHT22;886;50.082;8.222;2023-06-04T10:24:12;23.80;51.60
1778;DHT22;886;50.082;8.222;2023-06-04T10:26:42;23.80;51.80
1778;DHT22;886;50.082;8.222;2023-06-04T10:29:11;23.80;51.80
1778;DHT22;886;50.082;8.222;2023-06-04T10:31:40;23.90;51.90
1778;DHT22;886;50.082;8.222;2023-06-04T10:34:08;23.90;51.70
1778;DHT22;886;50.082;8.222;2023-06-04T10:36:43;23.90;51.00
1778;DHT22;886;50.082;8.222;2023-06-04T10:39:10;23.80;51.30
1778;DHT22;886;50.082;8.222;2023-06-04T10:41:38;23.70;51.80
1778;DHT22;886;50.082;8.222;2023-06-04T10:44:06;23.70;52.40
1778;DHT22;886;50.082;8.222;2023-06-04T10:46:41;23.80;52.90
1778;DHT22;886;50.082;8.222;2023-06-04T10:51:34;23.80;52.70
1778;DHT22;886;50.082;8.222;2023-06-04T10:54:04;23.80;52.40
1778;DHT22;886;50.082;8.222;2023-06-04T10:56:33;23.80;52.70
1778;DHT22;886;50.082;8.222;2023-06-04T10:59:13;23.80;53.10
1778;DHT22;886;50.082;8.222;2023-06-04T11:01:41;23.90;52.60
1778;DHT22;886;50.082;8.222;2023-06-04T11:04:18;23.90;52.70
1778;DHT22;886;50.082;8.222;2023-06-04T11:06:48;23.90;52.00
1778;DHT22;886;50.082;8.222;2023-06-04T11:09:29;23.90;52.30
1778;DHT22;886;50.082;8.222;2023-06-04T11:11:58;23.90;52.50
1778;DHT22;886;50.082;8.222;2023-06-04T11:14:25;23.90;52.20
1778;DHT22;886;50.082;8.222;2023-06-04T11:16:52;23.80;52.60
1778;DHT22;886;50.082;8.222;2023-06-04T11:19:19;23.90;53.00
1778;DHT22;886;50.082;8.222;2023-06-04T11:21:49;23.80;52.50
1778;DHT22;886;50.082;8.222;2023-06-04T11:24:17;23.90;52.30
1778;DHT22;886;50.082;8.222;2023-06-04T11:26:44;23.90;53.20
1778;DHT22;886;50.082;8.222;2023-06-04T11:29:32;23.90;53.20
1778;DHT22;886;50.082;8.222;2023-06-04T11:31:59;23.90;52.60
1778;DHT22;886;50.082;8.222;2023-06-04T11:34:28;23.90;52.70
1778;DHT22;886;50.082;8.222;2023-06-04T11:37:07;23.90;51.80
1778;DHT22;886;50.082;8.222;2023-06-04T11:39:36;23.90;51.90
1778;DHT22;886;50.082;8.222;2023-06-04T11:42:06;23.90;52.40
1778;DHT22;886;50.082;8.222;2023-06-04T11:44:34;23.90;52.20
1778;DHT22;886;50.082;8.222;2023-06-04T11:47:05;23.90;52.40
1778;DHT22;886;50.082;8.222;2023-06-04T11:49:34;23.90;52.50
1778;DHT22;886;50.082;8.222;2023-06-04T11:52:05;23.80;52.90
1778;DHT22;886;50.082;8.222;2023-06-04T11:54:33;23.80;53.10
1778;DHT22;886;50.082;8.222;2023-06-04T11:57:05;23.80;52.40
1778;DHT22;886;50.082;8.222;2023-06-04T11:59:33;23.80;52.50
1778;DHT22;886;50.082;8.222;2023-06-04T12:02:03;23.70;51.60
1778;DHT22;886;50.082;8.222;2023-06-04T12:04:31;23.80;51.60
1778;DHT22;886;50.082;8.222;2023-06-04T12:07:00;23.80;51.10
1778;DHT22;886;50.082;8.222;2023-06-04T12:09:31;23.90;50.90
1778;DHT22;886;50.082;8.222;2023-06-04T12:12:03;23.90;51.20
1778;DHT22;886;50.082;8.222;2023-06-04T12:14:31;23.90;51.20
1778;DHT22;886;50.082;8.222;2023-06-04T12:16:59;23.90;51.30
1778;DHT22;886;50.082;8.222;2023-06-04T12:19:28;23.90;50.90
1778;DHT22;886;50.082;8.222;2023-06-04T12:21:59;23.90;51.40
1778;DHT22;886;50.082;8.222;2023-06-04T12:24:31;23.90;51.40
1778;DHT22;886;50.082;8.222;2023-06-04T12:27:02;23.90;51.20
1778;DHT22;886;50.082;8.222;2023-06-04T12:29:31;24.00;50.80
1778;DHT22;886;50.082;8.222;2023-06-04T12:32:02;24.00;51.00
1778;DHT22;886;50.082;8.222;2023-06-04T12:34:32;24.00;51.10
1778;DHT22;886;50.082;8.222;2023-06-04T12:36:59;24.00;51.30
1778;DHT22;886;50.082;8.222;2023-06-04T12:39:27;24.00;51.50
1778;DHT22;886;50.082;8.222;2023-06-04T12:41:55;24.10;50.80
1778;DHT22;886;50.082;8.222;2023-06-04T12:44:22;24.00;51.00
1778;DHT22;886;50.082;8.222;2023-06-04T12:46:50;23.90;51.10
1778;DHT22;886;50.082;8.222;2023-06-04T12:49:17;23.90;51.30
1778;DHT22;886;50.082;8.222;2023-06-04T12:51:45;23.80;50.80
1778;DHT22;886;50.082;8.222;2023-06-04T12:54:12;23.80;51.20
1778;DHT22;886;50.082;8.222;2023-06-04T12:56:39;23.90;51.50
1778;DHT22;886;50.082;8.222;2023-06-04T12:59:09;23.80;51.00
1778;DHT22;886;50.082;8.222;2023-06-04T13:01:36;23.90;51.00
1778;DHT22;886;50.082;8.222;2023-06-04T13:04:05;24.00;50.70
1778;DHT22;886;50.082;8.222;2023-06-04T13:06:34;24.00;51.10
1778;DHT22;886;50.082;8.222;2023-06-04T13:09:06;24.00;51.20
1778;DHT22;886;50.082;8.222;2023-06-04T13:11:37;24.10;50.90
1778;DHT22;886;50.082;8.222;2023-06-04T13:14:05;24.10;50.90
1778;DHT22;886;50.082;8.222;2023-06-04T13:16:35;24.10;50.00
1778;DHT22;886;50.082;8.222;2023-06-04T13:19:03;24.20;50.70
1778;DHT22;886;50.082;8.222;2023-06-04T13:21:30;24.10;50.70
1778;DHT22;886;50.082;8.222;2023-06-04T13:24:14;24.10;50.80
1778;DHT22;886;50.082;8.222;2023-06-04T13:26:42;24.10;50.00
1778;DHT22;886;50.082;8.222;2023-06-04T13:29:10;24.20;49.90
1778;DHT22;886;50.082;8.222;2023-06-04T13:31:38;24.10;50.10
1778;DHT22;886;50.082;8.222;2023-06-04T13:34:07;24.10;49.90
1778;DHT22;886;50.082;8.222;2023-06-04T13:36:52;24.10;50.00
1778;DHT22;886;50.082;8.222;2023-06-04T13:39:19;24.20;50.10
1778;DHT22;886;50.082;8.222;2023-06-04T13:41:47;24.20;50.30
1778;DHT22;886;50.082;8.222;2023-06-04T13:44:15;24.20;49.80
1778;DHT22;886;50.082;8.222;2023-06-04T13:46:43;24.30;49.70
1778;DHT22;886;50.082;8.222;2023-06-04T13:49:11;24.30;49.70
1778;DHT22;886;50.082;8.222;2023-06-04T13:51:38;24.30;50.00
1778;DHT22;886;50.082;8.222;2023-06-04T13:54:05;24.30;50.40
1778;DHT22;886;50.082;8.222;2023-06-04T13:56:33;24.20;50.30
1778;DHT22;886;50.082;8.222;2023-06-04T13:59:01;24.20;50.70
1778;DHT22;886;50.082;8.222;2023-06-04T14:01:29;24.30;51.20
1778;DHT22;886;50.082;8.222;2023-06-04T14:03:58;24.30;50.30
1778;DHT22;886;50.082;8.222;2023-06-04T14:06:28;24.30;50.60
1778;DHT22;886;50.082;8.222;2023-06-04T14:08:55;24.30;50.80
1778;DHT22;886;50.082;8.222;2023-06-04T14:11:22;24.30;50.80
1778;DHT22;886;50.082;8.222;2023-06-04T14:13:50;24.30;50.10
1778;DHT22;886;50.082;8.222;2023-06-04T14:16:17;24.30;50.30
1778;DHT22;886;50.082;8.222;2023-06-04T14:18:44;24.30;50.60
1778;DHT22;886;50.082;8.222;2023-06-04T14:21:13;24.30;50.30
1778;DHT22;886;50.082;8.222;2023-06-04T14:23:40;24.30;50.90
1778;DHT22;886;50.082;8.222;2023-06-04T14:26:08;24.30;50.60
1778;DHT22;886;50.082;8.222;2023-06-04T14:28:35;24.30;50.30
1778;DHT22;886;50.082;8.222;2023-06-04T14:31:03;24.30;50.40
1778;DHT22;886;50.082;8.222;2023-06-04T14:33:30;24.40;50.10
1778;DHT22;886;50.082;8.222;2023-06-04T14:35:57;24.40;50.00
1778;DHT22;886;50.082;8.222;2023-06-04T14:38:25;24.40;50.00
1778;DHT22;886;50.082;8.222;2023-06-04T14:40:53;24.40;50.20
1778;DHT22;886;50.082;8.222;2023-06-04T14:43:22;24.40;49.90
1778;DHT22;886;50.082;8.222;2023-06-04T14:45:49;24.40;49.80
1778;DHT22;886;50.082;8.222;2023-06-04T14:48:16;24.30;50.10
1778;DHT22;886;50.082;8.222;2023-06-04T14:50:44;24.40;50.00
1778;DHT22;886;50.082;8.222;2023-06-04T14:53:14;24.40;50.00
1778;DHT22;886;50.082;8.222;2023-06-04T14:55:43;24.50;50.00
1778;DHT22;886;50.082;8.222;2023-06-04T14:58:10;24.40;48.90
1778;DHT22;886;50.082;8.222;2023-06-04T15:00:38;24.40;48.90
1778;DHT22;886;50.082;8.222;2023-06-04T15:03:05;24.40;49.30
1778;DHT22;886;50.082;8.222;2023-06-04T15:05:33;24.40;49.40
1778;DHT22;886;50.082;8.222;2023-06-04T15:08:02;24.40;49.30
1778;DHT22;886;50.082;8.222;2023-06-04T15:10:30;24.30;49.40
1778;DHT22;886;50.082;8.222;2023-06-04T15:12:59;24.30;49.70
1778;DHT22;886;50.082;8.222;2023-06-04T15:15:27;24.30;49.80
1778;DHT22;886;50.082;8.222;2023-06-04T15:17:54;24.30;49.60
1778;DHT22;886;50.082;8.222;2023-06-04T15:20:21;24.40;49.60
1778;DHT22;886;50.082;8.222;2023-06-04T15:22:51;24.50;49.80
1778;DHT22;886;50.082;8.222;2023-06-04T15:25:19;24.40;50.00
1778;DHT22;886;50.082;8.222;2023-06-04T15:27:47;24.40;49.90
1778;DHT22;886;50.082;8.222;2023-06-04T15:30:16;24.40;49.70
1778;DHT22;886;50.082;8.222;2023-06-04T15:32:47;24.40;49.70
1778;DHT22;886;50.082;8.222;2023-06-04T15:35:15;24.40;49.90
1778;DHT22;886;50.082;8.222;2023-06-04T15:37:43;24.40;49.50
1778;DHT22;886;50.082;8.222;2023-06-04T15:40:10;24.30;49.40
1778;DHT22;886;50.082;8.222;2023-06-04T15:42:38;24.30;50.40
1778;DHT22;886;50.082;8.222;2023-06-04T15:45:07;24.40;51.10
1778;DHT22;886;50.082;8.222;2023-06-04T15:47:36;24.40;50.90
1778;DHT22;886;50.082;8.222;2023-06-04T15:50:04;24.40;50.60
1778;DHT22;886;50.082;8.222;2023-06-04T15:52:32;24.50;50.50
1778;DHT22;886;50.082;8.222;2023-06-04T15:55:00;24.40;50.60
1778;DHT22;886;50.082;8.222;2023-06-04T15:57:27;24.40;50.90
1778;DHT22;886;50.082;8.222;2023-06-04T15:59:54;24.40;51.20
1778;DHT22;886;50.082;8.222;2023-06-04T16:02:21;24.40;51.90
1778;DHT22;886;50.082;8.222;2023-06-04T16:04:50;24.40;52.60
1778;DHT22;886;50.082;8.222;2023-06-04T16:07:18;24.40;52.70
1778;DHT22;886;50.082;8.222;2023-06-04T16:09:45;24.30;53.10
1778;DHT22;886;50.082;8.222;2023-06-04T16:12:12;24.30;53.00
1778;DHT22;886;50.082;8.222;2023-06-04T16:14:39;24.30;52.90
1778;DHT22;886;50.082;8.222;2023-06-04T16:17:07;24.30;53.30
1778;DHT22;886;50.082;8.222;2023-06-04T16:19:34;24.30;53.00
1778;DHT22;886;50.082;8.222;2023-06-04T16:22:03;24.30;53.10
1778;DHT22;886;50.082;8.222;2023-06-04T16:24:31;24.30;52.20
1778;DHT22;886;50.082;8.222;2023-06-04T16:26:58;24.30;52.00
1778;DHT22;886;50.082;8.222;2023-06-04T16:29:25;24.40;52.90
1778;DHT22;886;50.082;8.222;2023-06-04T16:31:53;24.40;53.40